createdAt,value
2023-04-19T00:01:12.568Z,5.27
2023-04-19T00:03:40.323Z,5.27
2023-04-19T00:06:10.213Z,5.30
2023-04-19T00:08:39.971Z,5.30
2023-04-19T00:11:09.758Z,5.31
2023-04-19T00:13:36.912Z,5.31
2023-04-19T00:16:06.329Z,5.30
2023-04-19T00:18:33.664Z,5.28
2023-04-19T00:21:02.946Z,5.30
2023-04-19T00:23:30.623Z,5.28
2023-04-19T00:25:59.036Z,5.26
2023-04-19T00:28:27.593Z,5.27
2023-04-19T00:30:55.887Z,5.25
2023-04-19T00:33:24.656Z,5.26
2023-04-19T00:35:52.702Z,5.26
2023-04-19T00:38:21.220Z,5.24
2023-04-19T00:40:49.750Z,5.25
2023-04-19T00:43:19.772Z,5.21
2023-04-19T00:45:49.921Z,5.19
2023-04-19T00:48:19.760Z,5.17
2023-04-19T00:50:49.827Z,5.13
2023-04-19T00:53:19.683Z,5.11
2023-04-19T00:55:52.806Z,5.11
2023-04-19T00:58:22.970Z,5.07
2023-04-19T01:00:52.937Z,5.07
2023-04-19T01:03:22.997Z,5.11
2023-04-19T01:05:53.320Z,5.13
2023-04-19T01:08:24.107Z,5.18
2023-04-19T01:10:53.937Z,5.22
2023-04-19T01:13:23.887Z,5.20
2023-04-19T01:15:56.083Z,5.16
2023-04-19T01:18:29.353Z,5.13
2023-04-19T01:20:59.527Z,5.11
2023-04-19T01:23:29.284Z,5.12
2023-04-19T01:25:59.090Z,5.07
2023-04-19T01:28:29.137Z,5.05
2023-04-19T01:30:59.276Z,5.06
2023-04-19T01:33:29.087Z,5.01
2023-04-19T01:35:58.803Z,4.92
2023-04-19T01:38:28.742Z,4.90
2023-04-19T01:40:58.586Z,4.87
2023-04-19T01:43:28.385Z,4.81
2023-04-19T01:45:58.415Z,4.71
2023-04-19T01:48:28.145Z,4.64
2023-04-19T01:50:57.950Z,4.60
2023-04-19T01:53:27.813Z,4.51
2023-04-19T01:55:57.533Z,4.48
2023-04-19T01:58:27.229Z,4.43
2023-04-19T02:00:57.015Z,4.33
2023-04-19T02:03:27.036Z,4.29
2023-04-19T02:05:56.869Z,4.26
2023-04-19T02:08:27.706Z,4.21
2023-04-19T02:10:57.494Z,4.18
2023-04-19T02:13:27.440Z,4.15
2023-04-19T02:15:57.163Z,4.04
2023-04-19T02:18:27.041Z,3.98
2023-04-19T02:20:56.765Z,3.95
2023-04-19T02:23:26.527Z,3.90
2023-04-19T02:25:56.425Z,3.83
2023-04-19T02:28:26.229Z,3.79
2023-04-19T02:30:56.008Z,3.77
2023-04-19T02:33:29.639Z,3.74
2023-04-19T02:35:59.446Z,3.74
2023-04-19T02:38:29.459Z,3.71
2023-04-19T02:41:00.827Z,3.70
2023-04-19T02:43:30.781Z,3.66
2023-04-19T02:46:02.040Z,3.59
2023-04-19T02:48:32.087Z,3.53
2023-04-19T02:51:02.089Z,3.53
2023-04-19T02:53:31.909Z,3.48
2023-04-19T02:56:01.872Z,3.43
2023-04-19T02:58:31.635Z,3.39
2023-04-19T03:01:01.538Z,3.37
2023-04-19T03:03:31.893Z,3.33
2023-04-19T03:06:02.956Z,3.25
2023-04-19T03:08:32.963Z,3.20
2023-04-19T03:11:02.752Z,3.16
2023-04-19T03:13:32.556Z,3.09
2023-04-19T03:16:02.428Z,3.14
2023-04-19T03:18:32.293Z,3.10
2023-04-19T03:21:03.455Z,3.13
2023-04-19T03:23:33.226Z,3.06
2023-04-19T03:26:03.290Z,3.03
2023-04-19T03:28:33.150Z,2.98
2023-04-19T03:31:02.665Z,2.94
2023-04-19T03:33:29.914Z,2.90
2023-04-19T03:35:58.399Z,2.84
2023-04-19T03:38:26.907Z,2.78
2023-04-19T03:40:57.274Z,2.75
2023-04-19T03:43:26.874Z,2.75
2023-04-19T03:45:55.242Z,2.72
2023-04-19T03:48:23.847Z,2.64
2023-04-19T03:50:52.239Z,2.60
2023-04-19T03:53:20.736Z,2.56
2023-04-19T03:55:49.041Z,2.54
2023-04-19T03:58:17.620Z,2.53
2023-04-19T04:00:45.921Z,2.52
2023-04-19T04:03:14.826Z,2.58
2023-04-19T04:05:43.075Z,2.60
2023-04-19T04:08:11.395Z,2.65
2023-04-19T04:10:39.718Z,2.68
2023-04-19T04:13:08.128Z,2.69
2023-04-19T04:15:36.690Z,2.64
2023-04-19T04:18:07.732Z,2.64
2023-04-19T04:20:38.732Z,2.67
2023-04-19T04:23:09.081Z,2.65
2023-04-19T04:25:39.191Z,2.66
2023-04-19T04:28:08.999Z,2.70
2023-04-19T04:30:40.567Z,2.73
2023-04-19T04:33:12.002Z,2.75
2023-04-19T04:35:43.480Z,2.80
2023-04-19T04:38:23.700Z,2.84
2023-04-19T04:40:56.324Z,2.81
2023-04-19T04:43:29.265Z,2.80
2023-04-19T04:45:59.559Z,2.83
2023-04-19T04:48:31.390Z,2.87
2023-04-19T04:51:01.214Z,2.93
2023-04-19T04:53:31.027Z,2.94
2023-04-19T04:56:00.840Z,2.96
2023-04-19T04:58:30.605Z,2.99
2023-04-19T05:01:00.446Z,3.04
2023-04-19T05:03:30.331Z,3.08
2023-04-19T05:06:00.239Z,3.14
2023-04-19T05:08:30.071Z,3.19
2023-04-19T05:10:59.915Z,3.17
2023-04-19T05:13:29.792Z,3.24
2023-04-19T05:15:59.631Z,3.31
2023-04-19T05:18:29.597Z,3.35
2023-04-19T05:20:59.555Z,3.37
2023-04-19T05:23:29.357Z,3.44
2023-04-19T05:25:59.253Z,3.52
2023-04-19T05:28:29.144Z,3.55
2023-04-19T05:30:59.106Z,3.66
2023-04-19T05:33:28.902Z,3.69
2023-04-19T05:35:58.729Z,3.85
2023-04-19T05:38:28.503Z,3.82
2023-04-19T05:40:58.496Z,3.95
2023-04-19T05:43:28.280Z,3.96
2023-04-19T05:45:58.368Z,4.00
2023-04-19T05:48:28.259Z,4.10
2023-04-19T05:50:58.984Z,4.16
2023-04-19T05:53:28.840Z,4.18
2023-04-19T05:55:59.027Z,4.25
2023-04-19T05:58:28.845Z,4.41
2023-04-19T06:00:58.818Z,4.50
2023-04-19T06:03:31.201Z,4.61
2023-04-19T06:06:02.751Z,4.73
2023-04-19T06:08:32.635Z,4.81
2023-04-19T06:11:08.460Z,4.90
2023-04-19T06:13:45.705Z,4.98
2023-04-19T06:16:15.611Z,5.00
2023-04-19T06:18:45.426Z,5.15
2023-04-19T06:21:15.902Z,5.26
2023-04-19T06:23:45.657Z,5.48
2023-04-19T06:26:15.571Z,5.83
2023-04-19T06:28:45.320Z,5.81
2023-04-19T06:31:15.056Z,5.89
2023-04-19T06:33:45.057Z,5.94
2023-04-19T06:36:14.876Z,6.06
2023-04-19T06:38:46.250Z,6.19
2023-04-19T06:41:16.519Z,6.36
2023-04-19T06:43:46.332Z,6.45
2023-04-19T06:46:16.226Z,6.45
2023-04-19T06:48:46.052Z,6.63
2023-04-19T06:51:15.913Z,6.96
2023-04-19T06:53:45.936Z,6.97
2023-04-19T06:56:15.783Z,6.96
2023-04-19T06:58:45.600Z,7.13
2023-04-19T07:01:15.477Z,7.35
2023-04-19T07:03:46.248Z,7.91
2023-04-19T07:06:15.150Z,7.93
2023-04-19T07:11:20.246Z,7.87
2023-04-19T07:13:51.586Z,8.03
2023-04-19T07:16:21.452Z,8.07
2023-04-19T07:18:51.253Z,8.08
2023-04-19T07:21:22.037Z,8.07
2023-04-19T07:23:51.196Z,8.44
2023-04-19T07:26:21.200Z,8.61
2023-04-19T07:28:47.982Z,8.91
2023-04-19T07:31:18.233Z,9.15
2023-04-19T07:33:47.981Z,9.18
2023-04-19T07:36:16.337Z,9.18
2023-04-19T07:38:44.897Z,9.17
2023-04-19T07:41:13.452Z,9.28
2023-04-19T07:43:41.677Z,9.25
2023-04-19T07:46:18.594Z,9.74
2023-04-19T07:48:48.603Z,9.64
2023-04-19T07:51:19.525Z,9.77
2023-04-19T07:53:49.194Z,10.06
2023-04-19T07:56:20.478Z,10.24
2023-04-19T07:59:04.285Z,10.43
2023-04-19T08:01:37.220Z,10.70
2023-04-19T08:04:08.353Z,10.66
2023-04-19T08:06:39.753Z,10.90
2023-04-19T08:09:09.490Z,10.77
2023-04-19T08:11:39.319Z,10.49
2023-04-19T08:14:18.657Z,10.57
2023-04-19T08:17:22.400Z,10.58
2023-04-19T08:19:46.407Z,10.91
2023-04-19T08:22:18.068Z,10.94
2023-04-19T08:24:51.561Z,10.88
2023-04-19T08:27:22.035Z,11.13
2023-04-19T08:29:51.813Z,11.11
2023-04-19T08:32:21.635Z,10.99
2023-04-19T08:34:51.871Z,11.22
2023-04-19T08:37:21.512Z,10.92
2023-04-19T08:39:51.350Z,11.15
2023-04-19T08:42:33.194Z,11.08
2023-04-19T08:50:31.049Z,10.73
2023-04-19T08:53:20.833Z,10.00
2023-04-19T08:58:46.541Z,10.21
2023-04-19T09:01:34.916Z,10.79
2023-04-19T09:04:26.408Z,11.51
2023-04-19T09:06:57.736Z,11.79
2023-04-19T09:12:03.712Z,11.46
2023-04-19T09:14:33.562Z,12.37
2023-04-19T09:17:16.921Z,12.35
2023-04-19T09:19:50.164Z,12.47
2023-04-19T09:22:20.283Z,13.12
2023-04-19T09:27:37.231Z,10.91
2023-04-19T09:30:12.668Z,10.77
2023-04-19T09:32:48.789Z,10.36
2023-04-19T09:35:19.162Z,10.50
2023-04-19T09:38:06.272Z,11.33
2023-04-19T09:40:38.424Z,11.67
2023-04-19T09:43:32.903Z,11.49
2023-04-19T09:45:58.580Z,11.53
2023-04-19T09:48:28.470Z,10.91
2023-04-19T09:51:05.851Z,11.17
2023-04-19T09:53:39.998Z,12.09
2023-04-19T09:56:12.751Z,11.66
2023-04-19T09:58:50.079Z,11.81
2023-04-19T10:01:25.838Z,11.03
2023-04-19T10:03:59.216Z,10.89
2023-04-19T10:06:58.156Z,11.64
2023-04-19T10:09:28.369Z,11.60
2023-04-19T10:12:06.644Z,11.05
2023-04-19T10:14:42.564Z,11.00
2023-04-19T10:17:09.702Z,11.40
2023-04-19T10:19:39.554Z,11.92
2023-04-19T10:22:09.205Z,12.38
2023-04-19T10:24:37.869Z,12.92
2023-04-19T10:27:13.289Z,13.28
2023-04-19T10:30:01.313Z,13.08
2023-04-19T10:32:39.151Z,14.18
2023-04-19T10:35:19.233Z,13.82
2023-04-19T10:38:04.274Z,13.46
2023-04-19T10:41:00.668Z,13.70
2023-04-19T10:43:34.763Z,13.00
2023-04-19T10:46:32.697Z,12.15
2023-04-19T10:49:05.146Z,11.49
2023-04-19T10:51:36.462Z,11.74
2023-04-19T10:54:27.235Z,11.91
2023-04-19T10:57:08.241Z,12.38
2023-04-19T10:59:44.346Z,12.15
2023-04-19T11:02:22.863Z,12.14
2023-04-19T11:04:52.877Z,11.90
2023-04-19T11:07:22.747Z,11.45
2023-04-19T11:09:53.168Z,11.83
2023-04-19T11:12:23.043Z,11.92
2023-04-19T11:15:00.000Z,12.34
2023-04-19T11:17:32.598Z,12.06
2023-04-19T11:20:13.439Z,12.45
2023-04-19T11:22:46.419Z,12.43
2023-04-19T11:25:22.176Z,12.93
2023-04-19T11:27:53.606Z,12.11
2023-04-19T11:30:30.473Z,11.76
2023-04-19T11:33:00.277Z,12.29
2023-04-19T11:35:30.610Z,12.64
2023-04-19T11:37:59.965Z,12.54
2023-04-19T11:40:29.120Z,12.00
2023-04-19T11:43:02.401Z,11.63
2023-04-19T11:45:39.709Z,11.97
2023-04-19T11:48:17.843Z,11.83
2023-04-19T11:50:49.490Z,11.76
2023-04-19T11:53:23.434Z,11.64
2023-04-19T11:55:53.608Z,11.38
2023-04-19T11:58:29.659Z,11.60
2023-04-19T12:01:08.686Z,11.62
2023-04-19T12:03:49.807Z,11.50
2023-04-19T12:06:23.619Z,11.55
2023-04-19T12:08:56.240Z,11.34
2023-04-19T12:11:42.949Z,11.22
2023-04-19T12:14:15.928Z,11.54
2023-04-19T12:16:46.088Z,11.87
2023-04-19T12:19:22.773Z,12.23
2023-04-19T12:21:52.578Z,11.98
2023-04-19T12:24:21.085Z,11.78
2023-04-19T12:26:57.279Z,11.75
2023-04-19T12:29:27.894Z,12.20
2023-04-19T12:31:57.693Z,12.24
2023-04-19T12:34:29.113Z,11.81
2023-04-19T12:36:59.047Z,11.43
2023-04-19T12:39:28.943Z,11.45
2023-04-19T12:41:58.902Z,11.63
2023-04-19T12:44:28.714Z,11.64
2023-04-19T12:46:58.676Z,11.52
2023-04-19T12:49:28.537Z,11.55
2023-04-19T12:51:58.275Z,11.64
2023-04-19T12:54:28.063Z,11.67
2023-04-19T12:56:58.119Z,11.88
2023-04-19T12:59:27.941Z,12.06
2023-04-19T13:01:58.079Z,11.70
2023-04-19T13:04:28.148Z,11.59
2023-04-19T13:06:58.422Z,11.86
2023-04-19T13:09:29.191Z,11.62
2023-04-19T13:11:59.138Z,11.38
2023-04-19T13:14:29.304Z,11.51
2023-04-19T13:16:59.159Z,11.54
2023-04-19T13:19:28.926Z,11.50
2023-04-19T13:21:58.728Z,11.49
2023-04-19T13:24:28.590Z,11.57
2023-04-19T13:26:58.350Z,11.59
2023-04-19T13:29:27.152Z,11.63
2023-04-19T13:31:55.416Z,11.75
2023-04-19T13:34:23.741Z,11.69
2023-04-19T13:36:52.100Z,11.60
2023-04-19T13:39:20.685Z,11.10
2023-04-19T13:41:49.100Z,11.00
2023-04-19T13:44:17.599Z,11.10
2023-04-19T13:46:46.096Z,11.00
2023-04-19T13:49:14.449Z,10.94
2023-04-19T13:51:50.100Z,10.99
2023-04-19T13:54:21.326Z,10.76
2023-04-19T13:56:52.290Z,10.79
2023-04-19T13:59:22.392Z,10.75
2023-04-19T14:01:54.867Z,10.80
2023-04-19T14:04:24.258Z,10.74
2023-04-19T14:06:52.073Z,10.58
2023-04-19T14:09:20.385Z,10.42
2023-04-19T14:11:49.372Z,10.37
2023-04-19T14:14:18.130Z,10.43
2023-04-19T14:16:46.229Z,10.43
2023-04-19T14:19:14.294Z,10.36
2023-04-19T14:21:42.760Z,10.18
2023-04-19T14:24:11.114Z,9.98
2023-04-19T14:26:39.507Z,9.75
2023-04-19T14:29:08.008Z,9.67
2023-04-19T14:31:36.496Z,9.77
2023-04-19T14:34:05.253Z,9.73
2023-04-19T14:36:33.179Z,9.77
2023-04-19T14:39:01.652Z,9.72
2023-04-19T14:41:30.367Z,9.64
2023-04-19T14:43:58.913Z,9.60
2023-04-19T14:46:26.909Z,9.50
2023-04-19T14:48:55.706Z,9.52
2023-04-19T14:51:23.828Z,9.45
2023-04-19T14:53:52.375Z,9.46
2023-04-19T14:56:20.934Z,9.49
2023-04-19T14:58:49.291Z,9.40
2023-04-19T15:01:17.815Z,9.26
2023-04-19T15:03:45.815Z,9.24
2023-04-19T15:06:16.087Z,9.20
2023-04-19T15:08:46.943Z,9.13
2023-04-19T15:11:16.864Z,9.17
2023-04-19T15:13:46.652Z,9.18
2023-04-19T15:16:16.499Z,9.08
2023-04-19T15:18:46.365Z,9.04
2023-04-19T15:21:22.953Z,8.84
2023-04-19T15:23:54.351Z,8.61
2023-04-19T15:26:24.398Z,8.43
2023-04-19T15:28:56.371Z,8.30
2023-04-19T15:31:26.511Z,7.98
2023-04-19T15:33:56.422Z,7.58
2023-04-19T15:36:28.103Z,7.38
2023-04-19T15:39:00.985Z,7.31
2023-04-19T15:41:30.885Z,6.91
2023-04-19T15:44:01.196Z,6.54
2023-04-19T15:46:31.097Z,6.10
2023-04-19T15:49:01.889Z,5.89
2023-04-19T15:51:31.687Z,5.83
2023-04-19T15:54:01.530Z,5.71
2023-04-19T15:56:31.575Z,5.51
2023-04-19T15:59:01.312Z,5.38
2023-04-19T16:01:31.388Z,5.25
2023-04-19T16:04:01.278Z,5.19
2023-04-19T16:06:31.949Z,4.94
2023-04-19T16:09:01.776Z,4.76
2023-04-19T16:11:31.547Z,4.77
2023-04-19T16:14:01.515Z,4.67
2023-04-19T16:16:34.289Z,4.52
2023-04-19T16:19:04.435Z,4.46
2023-04-19T16:21:34.223Z,4.52
2023-04-19T16:24:04.691Z,4.51
2023-04-19T16:26:34.674Z,4.43
2023-04-19T16:29:03.063Z,4.41
2023-04-19T16:31:31.370Z,4.43
2023-04-19T16:33:59.771Z,4.33
2023-04-19T16:36:28.463Z,4.42
2023-04-19T16:38:56.527Z,4.52
2023-04-19T16:41:25.074Z,4.49
2023-04-19T16:43:55.474Z,4.41
2023-04-19T16:46:26.964Z,4.36
2023-04-19T16:48:58.992Z,4.33
2023-04-19T16:51:29.255Z,4.38
2023-04-19T16:53:59.177Z,4.45
2023-04-19T16:56:29.126Z,4.38
2023-04-19T16:58:59.003Z,4.42
2023-04-19T17:01:29.075Z,4.51
2023-04-19T17:03:59.136Z,4.51
2023-04-19T17:06:29.280Z,4.58
2023-04-19T17:09:02.069Z,4.62
2023-04-19T17:11:32.856Z,4.58
2023-04-19T17:14:03.349Z,4.51
2023-04-19T17:16:33.041Z,4.49
2023-04-19T17:19:02.868Z,4.54
2023-04-19T17:21:32.812Z,4.56
2023-04-19T17:24:02.711Z,4.65
2023-04-19T17:26:32.530Z,4.63
2023-04-19T17:29:02.633Z,4.60
2023-04-19T17:31:32.738Z,4.51
2023-04-19T17:34:02.800Z,4.47
2023-04-19T17:36:32.600Z,4.38
2023-04-19T17:39:02.597Z,4.45
2023-04-19T17:41:32.430Z,4.40
2023-04-19T17:44:02.329Z,4.36
2023-04-19T17:46:32.420Z,4.41
2023-04-19T17:49:02.388Z,4.41
2023-04-19T17:51:32.555Z,4.41
2023-04-19T17:54:02.354Z,4.40
2023-04-19T17:56:32.121Z,4.47
2023-04-19T17:59:03.865Z,4.49
2023-04-19T18:01:35.125Z,4.44
2023-04-19T18:04:05.851Z,4.45
2023-04-19T18:06:35.866Z,4.46
2023-04-19T18:09:04.361Z,4.52
2023-04-19T18:11:33.312Z,4.50
2023-04-19T18:14:01.242Z,4.49
2023-04-19T18:16:29.892Z,4.53
2023-04-19T18:18:58.241Z,4.53
2023-04-19T18:21:27.176Z,4.52
2023-04-19T18:23:56.356Z,4.55
2023-04-19T18:26:23.884Z,4.60
2023-04-19T18:28:52.413Z,4.63
2023-04-19T18:31:21.072Z,4.61
2023-04-19T18:33:49.304Z,4.64
2023-04-19T18:36:18.525Z,4.68
2023-04-19T18:38:46.205Z,4.70
2023-04-19T18:41:14.658Z,4.69
2023-04-19T18:43:59.508Z,4.68
2023-04-19T18:46:33.298Z,4.69
2023-04-19T18:49:03.142Z,4.73
2023-04-19T18:51:33.022Z,4.78
2023-04-19T18:54:03.695Z,4.71
2023-04-19T18:59:06.225Z,4.71
2023-04-19T19:01:36.206Z,4.77
2023-04-19T19:06:39.394Z,4.78
2023-04-19T19:09:09.375Z,4.75
2023-04-19T19:11:55.324Z,4.75
2023-04-19T19:14:26.189Z,4.76
2023-04-19T19:16:57.371Z,4.77
2023-04-19T19:19:27.671Z,4.78
2023-04-19T19:21:57.451Z,4.81
2023-04-19T19:24:27.383Z,4.83
2023-04-19T19:26:58.426Z,4.82
2023-04-19T19:29:28.236Z,4.83
2023-04-19T19:31:58.151Z,4.84
2023-04-19T19:34:30.186Z,4.86
2023-04-19T19:36:57.935Z,4.89
2023-04-19T19:39:26.409Z,4.93
2023-04-19T19:44:27.784Z,4.98
2023-04-19T19:46:58.403Z,5.00
2023-04-19T19:49:28.362Z,4.98
2023-04-19T19:51:59.435Z,4.96
2023-04-19T19:54:29.623Z,5.00
2023-04-19T19:59:34.968Z,5.06
2023-04-19T20:02:06.523Z,5.09
2023-04-19T20:04:38.702Z,5.07
2023-04-19T20:09:44.745Z,5.08
2023-04-19T20:12:17.922Z,5.08
2023-04-19T20:14:47.850Z,5.07
2023-04-19T20:17:17.661Z,5.09
2023-04-19T20:19:48.924Z,5.13
2023-04-19T20:22:18.935Z,5.12
2023-04-19T20:24:48.795Z,5.10
2023-04-19T20:27:19.511Z,5.11
2023-04-19T20:29:49.254Z,5.09
2023-04-19T20:32:19.184Z,5.06
2023-04-19T20:34:49.029Z,5.11
2023-04-19T20:37:18.959Z,5.13
2023-04-19T20:39:48.997Z,5.14
2023-04-19T20:42:18.834Z,5.12
2023-04-19T20:44:48.701Z,5.13
2023-04-19T20:47:18.531Z,5.15
2023-04-19T20:49:47.067Z,5.15
2023-04-19T20:52:15.380Z,5.18
2023-04-19T20:54:43.906Z,5.22
2023-04-19T20:57:12.159Z,5.23
2023-04-19T20:59:41.173Z,5.22
2023-04-19T21:02:09.096Z,5.19
2023-04-19T21:04:37.659Z,5.20
2023-04-19T21:07:06.026Z,5.18
2023-04-19T21:09:35.638Z,5.18
2023-04-19T21:12:03.242Z,5.17
2023-04-19T21:14:33.491Z,5.21
2023-04-19T21:17:03.719Z,5.21
2023-04-19T21:19:31.053Z,5.24
2023-04-19T21:21:59.502Z,5.22
2023-04-19T21:24:27.905Z,5.23
2023-04-19T21:26:57.745Z,5.21
2023-04-19T21:29:27.443Z,5.21
2023-04-19T21:31:57.203Z,5.22
2023-04-19T21:34:27.147Z,5.19
2023-04-19T21:36:57.055Z,5.22
2023-04-19T21:39:26.944Z,5.25
2023-04-19T21:41:57.493Z,5.23
2023-04-19T21:44:27.315Z,5.22
2023-04-19T21:46:57.287Z,5.18
2023-04-19T21:49:27.312Z,5.20
2023-04-19T21:51:57.392Z,5.20
2023-04-19T21:54:34.039Z,5.23
2023-04-19T21:57:04.640Z,5.26
2023-04-19T21:59:35.574Z,5.25
2023-04-19T22:02:05.434Z,5.21
2023-04-19T22:04:36.672Z,5.23
2023-04-19T22:09:37.387Z,5.23
2023-04-19T22:12:13.423Z,5.24
2023-04-19T22:14:44.793Z,5.24
2023-04-19T22:17:14.637Z,5.24
2023-04-19T22:19:45.463Z,5.15
2023-04-19T22:22:15.704Z,5.16
2023-04-19T22:24:56.734Z,5.20
2023-04-19T22:27:27.545Z,5.19
2023-04-19T22:29:57.642Z,5.20
2023-04-19T22:32:27.588Z,5.23
2023-04-19T22:34:57.389Z,5.24
2023-04-19T22:37:25.875Z,5.23
2023-04-19T22:39:54.191Z,5.20
2023-04-19T22:42:22.642Z,5.16
2023-04-19T22:44:50.988Z,5.18
2023-04-19T22:47:19.432Z,5.19
2023-04-19T22:49:48.141Z,5.13
2023-04-19T22:52:16.428Z,5.17
2023-04-19T22:54:45.231Z,5.16
2023-04-19T22:57:13.144Z,5.15
2023-04-19T22:59:41.656Z,5.15
2023-04-19T23:02:10.538Z,5.21
2023-04-19T23:04:39.297Z,5.19
2023-04-19T23:07:07.301Z,5.20
2023-04-19T23:09:39.071Z,5.22
2023-04-19T23:12:13.284Z,5.20
2023-04-19T23:14:43.490Z,5.19
2023-04-19T23:17:14.454Z,5.21
2023-04-19T23:19:44.272Z,5.24
2023-04-19T23:22:14.084Z,5.24
2023-04-19T23:24:43.805Z,5.20
2023-04-19T23:27:13.927Z,5.23
2023-04-19T23:29:43.706Z,5.21
2023-04-19T23:32:13.457Z,5.19
2023-04-19T23:34:43.157Z,5.18
2023-04-19T23:37:13.694Z,5.21
2023-04-19T23:39:43.889Z,5.25
2023-04-19T23:42:17.542Z,5.24
2023-04-19T23:44:47.319Z,5.22
2023-04-19T23:47:17.014Z,5.19
2023-04-19T23:49:47.498Z,5.22
2023-04-19T23:52:18.199Z,5.17
2023-04-19T23:54:48.445Z,5.21
2023-04-19T23:57:19.387Z,5.23
2023-04-19T23:59:50.053Z,5.21
